createdAt,value
2022-08-07T00:02:35.339Z,102555.53
2022-08-07T00:04:09.623Z,102574.72
2022-08-07T00:06:45.496Z,102571.31
2022-08-07T00:09:22.841Z,102575.75
2022-08-07T00:11:55.494Z,102566.22
2022-08-07T00:14:25.486Z,102570.63
2022-08-07T00:16:52.718Z,102554.25
2022-08-07T00:19:21.685Z,102552.53
2022-08-07T00:21:57.053Z,102541.34
2022-08-07T00:24:29.271Z,102569.13
2022-08-07T00:27:06.193Z,102562.28
2022-08-07T00:29:33.862Z,102564.91
2022-08-07T00:32:05.762Z,102572.88
2022-08-07T00:34:33.619Z,102580.81
2022-08-07T00:37:02.892Z,102566.94
2022-08-07T00:39:32.434Z,102550.44
2022-08-07T00:42:01.974Z,102564.38
2022-08-07T00:44:33.184Z,102576.66
2022-08-07T00:47:00.478Z,102562.75
2022-08-07T00:50:21.367Z,102558.44
2022-08-07T00:52:17.729Z,102556.72
2022-08-07T00:54:47.282Z,102548.88
2022-08-07T00:57:22.278Z,102538.50
2022-08-07T00:59:49.495Z,102559.41
2022-08-07T01:02:28.785Z,102543.84
2022-08-07T01:04:58.637Z,102563.88
2022-08-07T01:07:27.604Z,102558.69
2022-08-07T01:10:06.322Z,102537.00
2022-08-07T01:12:40.096Z,102537.00
2022-08-07T01:15:22.507Z,102552.75
2022-08-07T01:18:03.012Z,102560.56
2022-08-07T01:20:43.078Z,102562.38
2022-08-07T01:23:12.984Z,102558.06
2022-08-07T01:25:55.751Z,102552.00
2022-08-07T01:28:23.746Z,102565.09
2022-08-07T01:30:52.166Z,102565.09
2022-08-07T01:33:18.842Z,102560.78
2022-08-07T01:35:53.594Z,102543.41
2022-08-07T01:38:24.793Z,102566.91
2022-08-07T01:40:55.696Z,102556.47
2022-08-07T01:43:23.928Z,102542.56
2022-08-07T01:45:54.586Z,102559.09
2022-08-07T01:48:30.597Z,102552.09
2022-08-07T01:51:24.351Z,102559.94
2022-08-07T01:54:08.601Z,102553.84
2022-08-07T01:56:53.258Z,102554.78
2022-08-07T01:59:34.002Z,102542.63
2022-08-07T02:02:10.469Z,102548.72
2022-08-07T02:04:55.651Z,102560.00
2022-08-07T02:07:44.753Z,102562.66
2022-08-07T02:10:14.501Z,102552.22
2022-08-07T02:12:46.413Z,102563.56
2022-08-07T02:15:22.615Z,102511.34
2022-08-07T02:17:51.905Z,102557.47
2022-08-07T02:20:23.900Z,102523.56
2022-08-07T02:22:55.331Z,102558.41
2022-08-07T02:26:10.142Z,102562.75
2022-08-07T02:28:12.941Z,102548.84
2022-08-07T02:30:40.799Z,102549.69
2022-08-07T02:33:10.423Z,102527.94
2022-08-07T02:36:29.364Z,102545.34
2022-08-07T02:38:31.943Z,102531.44
2022-08-07T02:41:00.704Z,102558.44
2022-08-07T02:43:28.752Z,102560.19
2022-08-07T02:46:01.650Z,102528.91
2022-08-07T02:48:29.712Z,102559.38
2022-08-07T02:50:59.594Z,102548.06
2022-08-07T02:53:38.309Z,102553.31
2022-08-07T02:56:17.597Z,102527.25
2022-08-07T02:58:54.249Z,102548.09
2022-08-07T03:01:35.592Z,102540.28
2022-08-07T03:04:07.814Z,102542.94
2022-08-07T03:06:41.991Z,102554.25
2022-08-07T03:09:11.843Z,102554.25
2022-08-07T03:11:52.489Z,102550.78
2022-08-07T03:14:26.105Z,102548.16
2022-08-07T03:16:55.573Z,102547.34
2022-08-07T03:19:22.918Z,102551.66
2022-08-07T03:21:51.227Z,102536.88
2022-08-07T03:24:27.214Z,102555.16
2022-08-07T03:26:58.066Z,102541.25
2022-08-07T03:29:30.525Z,102546.47
2022-08-07T03:31:58.038Z,102555.16
2022-08-07T03:34:27.942Z,102568.25
2022-08-07T03:36:57.317Z,102551.72
2022-08-07T03:39:46.007Z,102534.28
2022-08-07T03:42:14.192Z,102542.09
2022-08-07T03:44:41.467Z,102564.75
2022-08-07T03:47:10.824Z,102528.19
2022-08-07T03:49:39.441Z,102527.31
2022-08-07T03:52:08.219Z,102549.09
2022-08-07T03:54:55.072Z,102502.94
2022-08-07T03:58:32.706Z,102529.06
2022-08-07T04:00:14.328Z,102546.47
2022-08-07T04:02:47.496Z,102547.34
2022-08-07T04:05:19.780Z,102544.75
2022-08-07T04:07:51.683Z,102535.16
2022-08-07T04:10:19.984Z,102557.78
2022-08-07T04:12:48.879Z,102553.44
2022-08-07T04:15:18.200Z,102546.41
2022-08-07T04:18:56.670Z,102539.44
2022-08-07T04:20:32.170Z,102538.56
2022-08-07T04:23:06.424Z,102551.66
2022-08-07T04:25:38.982Z,102549.91
2022-08-07T04:28:10.384Z,102528.97
2022-08-07T04:30:55.641Z,102555.09
2022-08-07T04:33:24.774Z,102544.66
2022-08-07T04:35:53.976Z,102539.41
2022-08-07T04:38:21.888Z,102551.59
2022-08-07T04:40:52.106Z,102546.38
2022-08-07T04:44:10.532Z,102553.31
2022-08-07T04:46:59.368Z,102562.03
2022-08-07T04:49:37.781Z,102513.22
2022-08-07T04:52:10.998Z,102559.41
2022-08-07T04:54:54.980Z,102562.00
2022-08-07T04:58:32.100Z,102545.44
2022-08-07T05:00:30.796Z,102532.38
2022-08-07T05:03:17.160Z,102551.53
2022-08-07T05:06:19.965Z,102572.44
2022-08-07T05:09:08.975Z,102582.84
2022-08-07T05:11:58.730Z,102576.78
2022-08-07T05:14:54.051Z,102566.31
2022-08-07T05:18:00.600Z,102555.00
2022-08-07T05:20:16.311Z,102533.22
2022-08-07T05:22:46.115Z,102552.38
2022-08-07T05:25:25.866Z,102576.78
2022-08-07T05:28:21.260Z,102571.56
2022-08-07T05:30:52.161Z,102553.31
2022-08-07T05:33:21.360Z,102577.72
2022-08-07T05:35:50.725Z,102570.75
2022-08-07T05:39:00.704Z,102576.00
2022-08-07T05:41:14.355Z,102564.75
2022-08-07T05:44:01.554Z,102584.75
2022-08-07T05:46:36.290Z,102576.00
2022-08-07T05:49:12.040Z,102555.03
2022-08-07T05:51:42.307Z,102594.91
2022-08-07T05:54:19.510Z,102589.56
2022-08-07T05:56:58.023Z,102597.22
2022-08-07T05:59:27.586Z,102604.88
2022-08-07T06:01:57.278Z,102581.22
2022-08-07T06:04:26.305Z,102612.44
2022-08-07T06:07:03.803Z,102597.53
2022-08-07T06:10:04.273Z,102569.56
2022-08-07T06:12:21.038Z,102598.09
2022-08-07T06:14:55.076Z,102597.03
2022-08-07T06:17:37.976Z,102594.41
2022-08-07T06:20:12.328Z,102606.72
2022-08-07T06:23:09.357Z,102581.56
2022-08-07T06:25:54.051Z,102583.28
2022-08-07T06:28:27.923Z,102597.03
2022-08-07T06:30:56.259Z,102602.94
2022-08-07T06:33:26.317Z,102598.41
2022-08-07T06:36:12.295Z,102573.88
2022-08-07T06:38:58.835Z,102607.69
2022-08-07T06:41:59.235Z,102613.59
2022-08-07T06:44:31.140Z,102586.31
2022-08-07T06:47:10.662Z,102614.69
2022-08-07T06:49:51.218Z,102610.94
2022-08-07T06:52:31.272Z,102609.84
2022-08-07T06:55:33.997Z,102601.78
2022-08-07T06:57:57.146Z,102608.59
2022-08-07T07:00:24.715Z,102613.50
2022-08-07T07:02:57.437Z,102604.38
2022-08-07T07:06:03.947Z,102571.78
2022-08-07T07:08:18.542Z,102592.16
2022-08-07T07:10:56.730Z,102601.41
2022-08-07T07:13:41.630Z,102607.97
2022-08-07T07:16:30.499Z,102604.97
2022-08-07T07:19:34.131Z,102616.75
2022-08-07T07:22:12.114Z,102592.03
2022-08-07T07:24:43.161Z,102611.63
2022-08-07T07:27:35.684Z,102605.16
2022-08-07T07:30:32.355Z,102614.16
2022-08-07T07:33:06.127Z,102606.81
2022-08-07T07:35:43.757Z,102604.53
2022-08-07T07:38:23.594Z,102602.25
2022-08-07T07:40:52.194Z,102601.81
2022-08-07T07:43:27.525Z,102592.72
2022-08-07T07:46:37.884Z,102610.44
2022-08-07T07:48:59.922Z,102579.00
2022-08-07T07:51:58.468Z,102577.69
2022-08-07T07:54:25.032Z,102610.03
2022-08-07T07:56:55.369Z,102588.88
2022-08-07T07:59:52.305Z,102581.63
2022-08-07T08:02:34.180Z,102589.88
2022-08-07T08:05:05.189Z,102605.88
2022-08-07T08:07:35.693Z,102607.09
2022-08-07T08:10:14.868Z,102596.94
2022-08-07T08:13:00.602Z,102598.94
2022-08-07T08:15:57.919Z,102593.91
2022-08-07T08:18:28.138Z,102596.03
2022-08-07T08:20:55.777Z,102588.38
2022-08-07T08:23:42.609Z,102604.41
2022-08-07T08:26:31.012Z,102608.25
2022-08-07T08:29:01.185Z,102603.69
2022-08-07T08:32:17.030Z,102577.19
2022-08-07T08:34:27.107Z,102578.94
2022-08-07T08:36:58.046Z,102592.06
2022-08-07T08:39:39.581Z,102596.69
2022-08-07T08:42:31.893Z,102566.28
2022-08-07T08:45:13.188Z,102587.72
2022-08-07T08:47:52.773Z,102558.69
2022-08-07T08:50:34.918Z,102559.69
2022-08-07T08:53:19.238Z,102586.31
2022-08-07T08:56:02.445Z,102584.53
2022-08-07T08:58:57.202Z,102585.34
2022-08-07T09:01:43.808Z,102588.88
2022-08-07T09:04:31.605Z,102583.97
2022-08-07T09:07:06.155Z,102580.03
2022-08-07T09:10:02.514Z,102589.47
2022-08-07T09:12:54.339Z,102575.53
2022-08-07T09:16:22.697Z,102553.56
2022-08-07T09:18:53.369Z,102557.97
2022-08-07T09:21:33.784Z,102573.06
2022-08-07T09:24:55.333Z,102559.75
2022-08-07T09:27:30.343Z,102558.66
2022-08-07T09:30:08.794Z,102554.28
2022-08-07T09:33:05.236Z,102557.41
2022-08-07T09:36:00.951Z,102530.50
2022-08-07T09:39:27.394Z,102547.53
2022-08-07T09:42:17.005Z,102546.00
2022-08-07T09:47:20.215Z,102537.78
2022-08-07T09:48:07.537Z,102542.38
2022-08-07T09:50:53.142Z,102538.25
2022-08-07T09:53:22.569Z,102535.03
2022-08-07T09:56:03.674Z,102525.19
2022-08-07T09:58:53.151Z,102524.13
2022-08-07T10:01:51.222Z,102523.94
2022-08-07T10:04:19.916Z,102509.97
2022-08-07T10:07:39.658Z,102507.34
2022-08-07T10:10:21.518Z,102508.66
2022-08-07T10:13:54.834Z,102507.38
2022-08-07T10:16:49.028Z,102506.25
2022-08-07T10:19:40.122Z,102488.44
2022-08-07T10:22:50.862Z,102494.84
2022-08-07T10:25:55.026Z,102501.25
2022-08-07T10:28:30.607Z,102498.06
2022-08-07T10:31:06.085Z,102493.44
2022-08-07T10:34:14.043Z,102490.03
2022-08-07T10:36:59.093Z,102485.78
2022-08-07T10:40:05.276Z,102487.84
2022-08-07T10:42:40.921Z,102483.25
2022-08-07T10:45:57.667Z,102486.28
2022-08-07T10:48:52.731Z,102486.88
2022-08-07T10:52:01.855Z,102470.06
2022-08-07T10:55:01.537Z,102483.03
2022-08-07T10:57:51.547Z,102477.47
2022-08-07T11:00:39.484Z,102470.09
2022-08-07T11:03:17.142Z,102477.25
2022-08-07T11:06:02.899Z,102470.22
2022-08-07T11:08:51.773Z,102466.03
2022-08-07T11:11:25.722Z,102469.69
2022-08-07T11:14:45.309Z,102450.72
2022-08-07T11:17:02.101Z,102446.00
2022-08-07T11:19:53.111Z,102453.84
2022-08-07T11:22:43.972Z,102449.31
2022-08-07T11:25:25.837Z,102443.63
2022-08-07T11:28:04.053Z,102441.22
2022-08-07T11:31:11.619Z,102437.13
2022-08-07T11:34:17.253Z,102442.34
2022-08-07T11:36:52.379Z,102433.97
2022-08-07T11:40:00.415Z,102424.28
2022-08-07T11:43:15.368Z,102422.31
2022-08-07T11:46:19.208Z,102427.28
2022-08-07T11:49:51.599Z,102418.72
2022-08-07T11:52:37.693Z,102426.53
2022-08-07T11:56:25.082Z,102413.75
2022-08-07T11:58:38.844Z,102415.19
2022-08-07T12:01:11.431Z,102415.63
2022-08-07T12:04:06.751Z,102405.97
2022-08-07T12:06:50.906Z,102409.78
2022-08-07T12:09:46.208Z,102400.56
2022-08-07T12:13:11.632Z,102407.25
2022-08-07T12:16:07.075Z,102399.84
2022-08-07T12:18:51.156Z,102392.31
2022-08-07T12:21:55.869Z,102402.69
2022-08-07T12:24:37.854Z,102409.50
2022-08-07T12:27:15.918Z,102395.56
2022-08-07T12:29:53.731Z,102390.75
2022-08-07T12:32:34.774Z,102391.31
2022-08-07T12:35:08.371Z,102369.69
2022-08-07T12:38:10.759Z,102366.81
2022-08-07T12:40:47.375Z,102378.91
2022-08-07T12:44:02.573Z,102381.88
2022-08-07T12:46:15.901Z,102371.78
2022-08-07T12:49:39.927Z,102366.84
2022-08-07T12:52:14.429Z,102369.31
2022-08-07T12:54:54.607Z,102374.41
2022-08-07T12:57:59.159Z,102343.56
2022-08-07T13:00:31.037Z,102357.97
2022-08-07T13:03:26.874Z,102359.38
2022-08-07T13:06:27.617Z,102359.84
2022-08-07T13:10:20.115Z,102361.81
2022-08-07T13:12:36.398Z,102364.78
2022-08-07T13:15:34.570Z,102360.38
2022-08-07T13:18:28.340Z,102353.72
2022-08-07T13:21:51.237Z,102360.69
2022-08-07T13:24:33.160Z,102358.09
2022-08-07T13:27:13.157Z,102354.97
2022-08-07T13:30:05.176Z,102355.53
2022-08-07T13:32:55.515Z,102342.72
2022-08-07T13:36:00.949Z,102338.47
2022-08-07T13:38:24.681Z,102318.63
2022-08-07T13:41:20.696Z,102332.31
2022-08-07T13:43:52.643Z,102326.78
2022-08-07T13:46:32.759Z,102327.84
2022-08-07T13:49:01.678Z,102324.63
2022-08-07T13:52:22.943Z,102323.91
2022-08-07T13:54:23.790Z,102324.50
2022-08-07T13:56:59.470Z,102317.66
2022-08-07T13:59:33.257Z,102313.16
2022-08-07T14:02:10.362Z,102311.59
2022-08-07T14:05:05.527Z,102313.00
2022-08-07T14:08:00.960Z,102318.69
2022-08-07T14:10:42.290Z,102313.97
2022-08-07T14:13:18.018Z,102305.25
2022-08-07T14:15:53.220Z,102284.38
2022-08-07T14:18:31.369Z,102304.50
2022-08-07T14:21:08.441Z,102297.09
2022-08-07T14:24:00.911Z,102286.00
2022-08-07T14:26:56.384Z,102288.28
2022-08-07T14:30:09.807Z,102288.31
2022-08-07T14:32:16.103Z,102263.25
2022-08-07T14:34:48.193Z,102280.53
2022-08-07T14:37:19.479Z,102275.97
2022-08-07T14:40:17.257Z,102257.03
2022-08-07T14:42:59.932Z,102272.97
2022-08-07T14:45:51.399Z,102267.84
2022-08-07T14:48:27.275Z,102274.75
2022-08-07T14:50:56.743Z,102279.09
2022-08-07T14:54:03.758Z,102272.91
2022-08-07T14:56:15.706Z,102271.47
2022-08-07T14:59:02.064Z,102258.47
2022-08-07T15:01:42.646Z,102271.59
2022-08-07T15:04:11.660Z,102257.38
2022-08-07T15:06:40.642Z,102234.03
2022-08-07T15:09:57.608Z,102259.22
2022-08-07T15:12:25.496Z,102262.88
2022-08-07T15:15:08.237Z,102250.50
2022-08-07T15:17:54.649Z,102235.66
2022-08-07T15:23:22.385Z,102237.66
2022-08-07T15:30:04.546Z,102246.22
2022-08-07T15:31:57.671Z,102248.31
2022-08-07T15:34:33.565Z,102234.84
2022-08-07T15:37:07.090Z,102228.50
2022-08-07T15:42:44.581Z,102230.81
2022-08-07T15:45:22.324Z,102226.66
2022-08-07T15:48:00.876Z,102216.88
2022-08-07T15:53:52.137Z,102213.25
2022-08-07T15:56:24.628Z,102213.00
2022-08-07T15:58:58.834Z,102206.25
2022-08-07T16:01:39.115Z,102213.00
2022-08-07T16:04:15.218Z,102211.19
2022-08-07T16:06:51.668Z,102203.75
2022-08-07T16:09:40.934Z,102206.94
2022-08-07T16:12:25.133Z,102206.72
2022-08-07T16:15:54.619Z,102200.84
2022-08-07T16:18:49.952Z,102197.63
2022-08-07T16:21:53.481Z,102203.97
2022-08-07T16:24:34.232Z,102199.75
2022-08-07T16:27:40.663Z,102205.34
2022-08-07T16:30:30.391Z,102186.91
2022-08-07T16:34:01.920Z,102205.06
2022-08-07T16:36:06.743Z,102202.47
2022-08-07T16:39:06.079Z,102199.09
2022-08-07T16:41:55.374Z,102199.75
2022-08-07T16:44:57.217Z,102192.06
2022-08-07T16:47:57.077Z,102188.00
2022-08-07T16:51:07.225Z,102194.53
2022-08-07T16:54:02.290Z,102203.22
2022-08-07T16:56:48.992Z,102192.09
2022-08-07T16:59:19.850Z,102200.31
2022-08-07T17:02:51.357Z,102202.28
2022-08-07T17:06:19.850Z,102193.06
2022-08-07T17:09:09.233Z,102193.25
2022-08-07T17:12:01.528Z,102193.25
2022-08-07T17:14:41.872Z,102191.50
2022-08-07T17:17:44.261Z,102192.00
2022-08-07T17:20:37.478Z,102194.44
2022-08-07T17:23:22.520Z,102189.31
2022-08-07T17:26:04.363Z,102195.47
2022-08-07T17:28:38.242Z,102184.84
2022-08-07T17:31:44.166Z,102192.16
2022-08-07T17:34:40.995Z,102189.31
2022-08-07T17:38:06.529Z,102166.44
2022-08-07T17:40:30.277Z,102188.34
2022-08-07T17:43:17.848Z,102192.81
2022-08-07T17:45:55.547Z,102188.03
2022-08-07T17:48:33.405Z,102190.81
2022-08-07T17:51:11.594Z,102181.25
2022-08-07T17:54:00.165Z,102185.34
2022-08-07T17:56:36.310Z,102160.25
2022-08-07T17:59:35.412Z,102185.47
2022-08-07T18:02:38.724Z,102181.16
2022-08-07T18:05:21.299Z,102187.47
2022-08-07T18:08:24.477Z,102187.84
2022-08-07T18:12:08.250Z,102174.78
2022-08-07T18:14:23.763Z,102182.63
2022-08-07T18:17:07.424Z,102191.91
2022-08-07T18:21:06.660Z,102188.34
2022-08-07T18:23:05.343Z,102193.38
2022-08-07T18:26:01.186Z,102179.31
2022-08-07T18:28:57.941Z,102197.28
2022-08-07T18:31:38.906Z,102196.75
2022-08-07T18:34:36.991Z,102185.16
2022-08-07T18:38:57.674Z,102178.06
2022-08-07T18:40:39.846Z,102197.63
2022-08-07T18:43:36.705Z,102197.25
2022-08-07T18:46:25.764Z,102200.44
2022-08-07T18:50:32.866Z,102204.69
2022-08-07T18:52:53.820Z,102203.44
2022-08-07T18:55:42.909Z,102205.00
2022-08-07T18:58:33.974Z,102209.03
2022-08-07T19:02:17.324Z,102199.78
2022-08-07T19:04:54.747Z,102209.28
2022-08-07T19:07:34.990Z,102197.97
2022-08-07T19:10:14.837Z,102211.31
2022-08-07T19:13:10.053Z,102207.59
2022-08-07T19:16:04.329Z,102221.03
2022-08-07T19:19:14.310Z,102219.88
2022-08-07T19:21:56.862Z,102215.13
2022-08-07T19:24:43.226Z,102227.84
2022-08-07T19:28:56.697Z,102209.13
2022-08-07T19:31:05.190Z,102221.03
2022-08-07T19:32:59.752Z,102225.69
2022-08-07T19:35:28.333Z,102229.84
2022-08-07T19:38:04.339Z,102235.72
2022-08-07T19:40:50.515Z,102231.84
2022-08-07T19:43:50.195Z,102240.19
2022-08-07T19:46:11.700Z,102241.78
2022-08-07T19:48:53.729Z,102243.16
2022-08-07T19:51:50.874Z,102221.81
2022-08-07T19:54:31.938Z,102247.50
2022-08-07T19:57:56.856Z,102253.34
2022-08-07T20:00:10.017Z,102252.06
2022-08-07T20:02:52.035Z,102250.09
2022-08-07T20:05:28.175Z,102253.84
2022-08-07T20:08:02.125Z,102256.69
2022-08-07T20:10:54.483Z,102257.09
2022-08-07T20:13:37.378Z,102253.91
2022-08-07T20:16:15.970Z,102260.31
2022-08-07T20:19:00.067Z,102236.63
2022-08-07T20:21:41.679Z,102256.03
2022-08-07T20:24:35.753Z,102266.13
2022-08-07T20:27:11.668Z,102264.91
2022-08-07T20:29:56.743Z,102245.28
2022-08-07T20:32:39.945Z,102260.38
2022-08-07T20:35:10.731Z,102264.13
2022-08-07T20:37:55.205Z,102264.28
2022-08-07T20:40:32.165Z,102269.91
2022-08-07T20:43:02.208Z,102265.22
2022-08-07T20:45:32.679Z,102272.69
2022-08-07T20:48:25.803Z,102269.69
2022-08-07T20:50:59.606Z,102281.47
2022-08-07T20:54:04.543Z,102275.75
2022-08-07T20:56:16.578Z,102258.19
2022-08-07T20:58:53.891Z,102259.56
2022-08-07T21:01:22.252Z,102262.44
2022-08-07T21:04:13.377Z,102251.63
2022-08-07T21:06:53.237Z,102266.69
2022-08-07T21:09:24.475Z,102269.69
2022-08-07T21:11:55.826Z,102289.28
2022-08-07T21:14:48.423Z,102291.47
2022-08-07T21:18:02.950Z,102272.94
2022-08-07T21:20:18.937Z,102283.03
2022-08-07T21:22:57.355Z,102290.31
2022-08-07T21:25:39.071Z,102277.88
2022-08-07T21:28:50.071Z,102298.28
2022-08-07T21:31:49.613Z,102280.59
2022-08-07T21:34:46.072Z,102292.34
2022-08-07T21:37:58.864Z,102299.72
2022-08-07T21:40:38.364Z,102297.38
2022-08-07T21:43:13.873Z,102292.88
2022-08-07T21:46:10.269Z,102301.69
2022-08-07T21:48:48.143Z,102304.66
2022-08-07T21:51:26.668Z,102304.03
2022-08-07T21:54:18.735Z,102305.38
2022-08-07T21:57:03.481Z,102316.28
2022-08-07T22:00:04.073Z,102292.34
2022-08-07T22:02:48.219Z,102302.22
2022-08-07T22:05:21.810Z,102314.53
2022-08-07T22:08:10.513Z,102311.41
2022-08-07T22:10:42.401Z,102318.44
2022-08-07T22:13:14.396Z,102306.59
2022-08-07T22:16:38.482Z,102331.06
2022-08-07T22:19:18.161Z,102327.75
2022-08-07T22:22:01.695Z,102320.81
2022-08-07T22:24:45.772Z,102323.97
2022-08-07T22:27:56.293Z,102303.53
2022-08-07T22:30:20.129Z,102330.44
2022-08-07T22:32:58.069Z,102346.19
2022-08-07T22:35:39.597Z,102339.34
2022-08-07T22:38:25.736Z,102349.94
2022-08-07T22:41:20.267Z,102343.97
2022-08-07T22:43:56.026Z,102340.63
2022-08-07T22:47:06.529Z,102353.91
2022-08-07T22:50:07.041Z,102367.28
2022-08-07T22:52:59.438Z,102362.03
2022-08-07T22:55:30.134Z,102360.38
2022-08-07T22:58:34.032Z,102366.56
2022-08-07T23:01:51.959Z,102372.56
2022-08-07T23:04:58.563Z,102365.44
2022-08-07T23:08:22.613Z,102368.03
2022-08-07T23:11:13.562Z,102370.63
2022-08-07T23:14:19.820Z,102374.19
2022-08-07T23:16:58.488Z,102372.41
2022-08-07T23:20:02.804Z,102373.19
2022-08-07T23:22:40.100Z,102373.97
2022-08-07T23:25:28.573Z,102376.50
2022-08-07T23:28:21.189Z,102371.28
2022-08-07T23:31:18.597Z,102373.72
2022-08-07T23:34:45.094Z,102355.53
2022-08-07T23:37:30.185Z,102387.84
2022-08-07T23:40:18.159Z,102375.75
2022-08-07T23:43:16.875Z,102381.13
2022-08-07T23:46:10.830Z,102379.59
2022-08-07T23:48:56.155Z,102380.72
2022-08-07T23:53:00.668Z,102361.81
2022-08-07T23:54:45.932Z,102390.75
2022-08-07T23:57:41.245Z,102384.69
